Time;durP1;ratioP1;P1;durP2;ratioP2;P2;SDS_P1;SDS_P2;PMS_P1;PMS_P2;Temp;Humidity;BMP_temperature;BMP_pressure;BME280_temperature;BME280_humidity;BME280_pressure;Samples;Min_cycle;Max_cycle;Signal;HPM_P1;HPM_P2
2022/10/10 00:01:36;;;;;;;8.23;5.78;;;;;;;8.75;98.52;100566.59;8317490;28;20465;-50
2022/10/10 00:05:37;;;;;;;7.90;5.20;;;;;;;8.67;98.77;100555.59;8320039;28;20045;-50
2022/10/10 00:09:38;;;;;;;8.77;5.68;;;;;;;8.60;99.62;100562.47;8320337;28;20037;-50
2022/10/10 00:13:39;;;;;;;10.75;5.38;;;;;;;8.66;99.20;100556.56;8318996;28;20068;-50
2022/10/10 00:17:42;;;;;;;9.68;5.30;;;;;;;8.67;99.14;100563.66;8319361;28;20057;-50
2022/10/10 00:21:42;;;;;;;8.73;5.22;;;;;;;8.66;99.02;100567.34;8319854;28;20509;-49
2022/10/10 00:25:43;;;;;;;8.63;5.30;;;;;;;8.62;99.26;100563.19;8320074;28;20510;-54
2022/10/10 00:29:44;;;;;;;9.40;5.80;;;;;;;8.61;99.15;100558.78;8319511;28;20495;-50
2022/10/10 00:33:44;;;;;;;7.82;5.20;;;;;;;8.64;99.30;100566.63;8323650;28;20041;-49
2022/10/10 00:37:45;;;;;;;6.40;4.90;;;;;;;8.60;99.41;100557.09;8325590;28;20034;-53
2022/10/10 00:41:46;;;;;;;7.78;5.05;;;;;;;8.63;99.35;100559.53;8324540;28;20045;-50
2022/10/10 00:45:47;;;;;;;8.95;5.15;;;;;;;8.69;99.27;100557.16;8324383;28;20537;-49
2022/10/10 00:49:48;;;;;;;9.18;5.05;;;;;;;8.65;99.06;100554.84;8318886;28;20037;-52
2022/10/10 00:53:54;;;;;;;6.40;4.80;;;;;;;8.66;98.79;100551.19;8324428;28;20038;-50
2022/10/10 00:57:55;;;;;;;7.28;5.78;;;;;;;8.57;99.38;100551.94;8325144;28;20034;-51
2022/10/10 01:01:55;;;;;;;10.73;5.43;;;;;;;8.49;100.00;100549.03;8341672;28;20116;-49
2022/10/10 01:05:56;;;;;;;10.07;5.40;;;;;;;8.54;100.00;100546.81;8330347;28;20034;-50
2022/10/10 01:10:02;;;;;;;9.30;4.65;;;;;;;8.61;100.00;100538.09;8325215;28;20933;-50
2022/10/10 01:14:34;;;;;;;8.75;5.50;;;;;;;8.56;100.00;100539.44;8324775;28;20052;-50
2022/10/10 01:18:45;;;;;;;11.05;5.15;;;;;;;8.59;100.00;100525.72;8338537;28;20037;-52
2022/10/10 01:23:26;;;;;;;9.23;5.57;;;;;;;8.57;100.00;100530.41;8317907;28;20313;-49
2022/10/10 01:27:40;;;;;;;10.15;5.55;;;;;;;8.54;99.91;100525.25;8322806;28;20574;-53
2022/10/10 01:31:44;;;;;;;7.03;5.55;;;;;;;8.49;100.00;100524.78;8324220;28;20037;-49
2022/10/10 01:36:24;;;;;;;8.65;5.65;;;;;;;8.49;100.00;100527.47;8324237;28;20033;-49
2022/10/10 01:40:32;;;;;;;8.63;5.25;;;;;;;8.23;100.00;100521.53;8349355;28;20124;-50
2022/10/10 01:44:33;;;;;;;10.32;5.30;;;;;;;7.82;100.00;100522.19;8353220;28;20036;-50
2022/10/10 01:48:34;;;;;;;8.40;5.85;;;;;;;7.75;100.00;100517.41;8355162;28;20099;-50
2022/10/10 01:53:00;;;;;;;8.95;5.25;;;;;;;7.69;100.00;100516.06;8354960;28;20040;-49
2022/10/10 01:57:30;;;;;;;9.57;5.53;;;;;;;7.51;100.00;100509.44;8355930;28;20409;-49
2022/10/10 02:01:53;;;;;;;9.20;5.43;;;;;;;7.59;100.00;100509.69;8322709;28;20034;-49
2022/10/10 02:05:59;;;;;;;13.48;5.32;;;;;;;7.63;100.00;100503.09;8320746;28;20041;-50
2022/10/10 02:10:04;;;;;;;10.60;5.30;;;;;;;7.77;100.00;100496.59;8322870;28;20049;-53
2022/10/10 02:14:15;;;;;;;11.57;5.97;;;;;;;7.87;100.00;100495.75;8322941;28;20033;-50
2022/10/10 02:18:19;;;;;;;8.68;5.30;;;;;;;7.95;100.00;100501.38;8323086;28;20284;-51
2022/10/10 02:22:21;;;;;;;8.65;4.93;;;;;;;7.98;100.00;100493.03;8321945;28;20072;-49
2022/10/10 02:26:25;;;;;;;8.82;5.15;;;;;;;8.00;100.00;100493.75;8322867;28;20048;-49
2022/10/10 02:30:26;;;;;;;10.00;5.57;;;;;;;7.99;100.00;100489.38;8322280;28;20115;-53
2022/10/10 02:34:33;;;;;;;7.55;5.30;;;;;;;7.95;100.00;100485.22;8321556;28;20034;-49
2022/10/10 02:38:34;;;;;;;9.65;5.43;;;;;;;7.99;100.00;100481.28;8321070;28;20029;-49
2022/10/10 02:42:36;;;;;;;11.20;4.88;;;;;;;8.00;100.00;100472.22;8320981;28;20541;-49
2022/10/10 02:46:37;;;;;;;9.32;5.20;;;;;;;8.00;100.00;100472.22;8321621;28;20037;-50
2022/10/10 02:50:38;;;;;;;7.25;5.20;;;;;;;8.03;100.00;100482.75;8321665;28;20034;-49
2022/10/10 02:54:39;;;;;;;11.75;5.45;;;;;;;8.02;100.00;100470.28;8320770;28;20045;-49
2022/10/10 02:58:40;;;;;;;5.68;4.47;;;;;;;8.03;100.00;100469.28;8321097;28;20489;-51
2022/10/10 03:02:41;;;;;;;8.32;4.78;;;;;;;8.05;100.00;100472.72;8344892;28;20037;-53
2022/10/10 03:06:41;;;;;;;7.03;4.50;;;;;;;8.08;100.00;100468.91;8321212;28;20044;-51
2022/10/10 03:10:54;;;;;;;12.10;5.07;;;;;;;8.17;100.00;100467.31;8319967;28;20041;-53
2022/10/10 03:14:55;;;;;;;10.05;5.20;;;;;;;8.23;100.00;100462.28;8317442;28;20048;-51
2022/10/10 03:18:56;;;;;;;9.52;4.90;;;;;;;8.23;100.00;100469.53;8320471;28;20112;-53
2022/10/10 03:22:56;;;;;;;5.80;4.80;;;;;;;8.20;100.00;100475.13;8319898;28;20041;-54
2022/10/10 03:26:57;;;;;;;8.40;4.93;;;;;;;8.20;100.00;100477.81;8320846;28;20465;-55
2022/10/10 03:30:58;;;;;;;8.48;5.40;;;;;;;8.22;100.00;100471.34;8320017;28;20041;-53
2022/10/10 03:34:58;;;;;;;6.25;4.72;;;;;;;8.15;100.00;100470.13;8320270;28;20037;-52
2022/10/10 03:38:59;;;;;;;8.55;4.15;;;;;;;8.05;100.00;100464.63;8319853;28;20045;-53
2022/10/10 03:43:00;;;;;;;6.90;5.03;;;;;;;7.94;100.00;100456.56;8320506;28;20104;-51
2022/10/10 03:47:00;;;;;;;8.63;4.80;;;;;;;7.87;100.00;100463.44;8320801;28;20041;-52
2022/10/10 03:51:01;;;;;;;9.10;5.03;;;;;;;7.83;100.00;100470.06;8318974;28;20359;-52
2022/10/10 03:55:02;;;;;;;7.20;5.65;;;;;;;7.77;100.00;100459.78;8319498;28;20044;-51
2022/10/10 03:59:04;;;;;;;8.80;5.22;;;;;;;7.79;100.00;100463.22;8320092;28;20044;-54
2022/10/10 04:03:06;;;;;;;9.13;4.80;;;;;;;7.80;100.00;100459.56;8317431;28;20030;-53
2022/10/10 04:07:07;;;;;;;6.00;4.45;;;;;;;7.83;100.00;100453.91;8316996;28;20045;-51
2022/10/10 04:11:07;;;;;;;10.32;5.43;;;;;;;7.88;100.00;100457.09;8322964;28;20040;-53
2022/10/10 04:15:09;;;;;;;9.40;4.97;;;;;;;7.96;100.00;100456.44;8323500;28;20037;-51
2022/10/10 04:19:09;;;;;;;8.13;5.13;;;;;;;7.98;100.00;100452.66;8324534;28;20042;-52
2022/10/10 04:23:10;;;;;;;9.65;4.95;;;;;;;8.02;100.00;100454.13;8325012;28;20136;-54
2022/10/10 04:27:11;;;;;;;9.30;5.20;;;;;;;7.99;100.00;100451.69;8325795;28;20044;-53
2022/10/10 04:31:11;;;;;;;7.65;5.20;;;;;;;7.87;100.00;100439.22;8325152;28;20087;-52
2022/10/10 04:35:12;;;;;;;10.80;5.78;;;;;;;8.00;100.00;100445.31;8326130;28;20145;-51
2022/10/10 04:39:12;;;;;;;8.05;4.75;;;;;;;8.03;100.00;100455.81;8325242;28;20045;-53
2022/10/10 04:43:13;;;;;;;10.65;5.30;;;;;;;7.99;100.00;100446.28;8312902;28;20041;-51
2022/10/10 04:47:14;;;;;;;7.68;5.25;;;;;;;8.04;100.00;100451.28;8325296;28;20507;-51
2022/10/10 04:51:14;;;;;;;10.82;5.40;;;;;;;7.98;100.00;100452.66;8324759;28;20490;-52
2022/10/10 04:55:15;;;;;;;10.13;5.13;;;;;;;7.98;100.00;100447.28;8321654;28;20034;-53
2022/10/10 04:59:16;;;;;;;7.30;4.70;;;;;;;7.99;100.00;100454.38;8321092;28;20457;-51
2022/10/10 05:03:17;;;;;;;9.45;5.43;;;;;;;7.97;100.00;100459.00;8323193;28;20224;-51
2022/10/10 05:07:17;;;;;;;8.93;5.88;;;;;;;8.00;100.00;100456.06;8324809;28;20132;-52
2022/10/10 05:11:18;;;;;;;8.10;5.25;;;;;;;7.99;100.00;100465.13;8324459;28;20037;-51
2022/10/10 05:15:20;;;;;;;13.13;5.22;;;;;;;7.99;100.00;100448.13;8322053;28;20511;-53
2022/10/10 05:19:20;;;;;;;10.93;5.78;;;;;;;8.06;100.00;100450.19;8322949;28;20041;-51
2022/10/10 05:23:21;;;;;;;9.07;5.50;;;;;;;8.09;100.00;100444.53;8317180;28;20048;-51
2022/10/10 05:27:22;;;;;;;9.13;6.03;;;;;;;8.07;100.00;100457.28;8316596;28;20453;-55
2022/10/10 05:31:22;;;;;;;10.32;5.55;;;;;;;8.04;100.00;100454.84;8317056;28;20067;-54
2022/10/10 05:35:23;;;;;;;10.25;5.50;;;;;;;8.16;100.00;100452.13;8322745;28;20056;-51
2022/10/10 05:39:23;;;;;;;14.25;5.50;;;;;;;8.29;100.00;100445.63;8317538;28;20145;-53
2022/10/10 05:43:24;;;;;;;11.82;5.43;;;;;;;8.33;100.00;100446.22;8307548;28;20072;-52
2022/10/10 05:47:25;;;;;;;10.05;5.35;;;;;;;8.40;100.00;100452.81;8318110;28;20038;-53
2022/10/10 05:51:25;;;;;;;12.25;5.90;;;;;;;8.40;100.00;100450.13;8307379;28;20061;-51
2022/10/10 05:55:26;;;;;;;8.32;4.95;;;;;;;8.50;100.00;100448.34;8318171;28;20552;-54
2022/10/10 05:59:28;;;;;;;10.98;5.13;;;;;;;8.59;100.00;100452.97;8320501;28;20448;-52
2022/10/10 06:03:29;;;;;;;10.27;5.25;;;;;;;8.63;100.00;100449.03;8320762;28;20037;-51
2022/10/10 06:07:30;;;;;;;9.23;4.93;;;;;;;8.60;100.00;100450.13;8322855;28;20518;-54
2022/10/10 06:11:31;;;;;;;16.50;5.30;;;;;;;8.61;100.00;100451.00;8324090;28;20510;-51
2022/10/10 06:15:32;;;;;;;8.95;5.68;;;;;;;8.60;100.00;100449.31;8325359;28;20172;-51
2022/10/10 06:19:32;;;;;;;9.88;5.75;;;;;;;8.63;100.00;100459.81;8324434;28;20045;-52
2022/10/10 06:23:33;;;;;;;13.55;6.15;;;;;;;8.79;100.00;100462.91;8324334;28;20418;-51
2022/10/10 06:27:34;;;;;;;11.95;5.40;;;;;;;8.98;100.00;100452.25;8325013;28;20069;-51
2022/10/10 06:31:38;;;;;;;12.02;6.45;;;;;;;9.23;100.00;100454.53;8324082;28;20025;-54
2022/10/10 06:35:41;;;;;;;11.13;5.47;;;;;;;9.45;100.00;100448.97;8322869;28;20047;-53
2022/10/10 06:39:42;;;;;;;13.15;5.20;;;;;;;9.71;100.00;100466.41;8324544;28;20042;-51
2022/10/10 06:43:42;;;;;;;8.50;5.70;;;;;;;9.93;100.00;100461.66;8322434;28;20041;-51
2022/10/10 06:47:43;;;;;;;11.02;5.32;;;;;;;10.20;100.00;100463.75;8321465;28;20115;-53
2022/10/10 06:51:43;;;;;;;9.55;5.28;;;;;;;10.52;100.00;100475.16;8320757;28;20041;-51
2022/10/10 06:55:46;;;;;;;13.40;5.55;;;;;;;10.80;100.00;100481.56;8318619;28;20038;-51
2022/10/10 06:59:46;;;;;;;9.20;5.30;;;;;;;11.06;99.95;100480.84;8323166;28;20087;-54
2022/10/10 07:03:47;;;;;;;8.63;4.80;;;;;;;11.37;98.03;100479.63;8321548;28;20090;-54
2022/10/10 07:07:51;;;;;;;9.05;5.40;;;;;;;11.60;98.27;100475.56;8323303;28;20403;-51
2022/10/10 07:11:51;;;;;;;20.45;5.38;;;;;;;11.86;98.02;100487.47;8321733;28;20117;-54
2022/10/10 07:15:52;;;;;;;11.88;4.45;;;;;;;12.13;97.15;100483.06;8323302;28;20494;-51
2022/10/10 07:19:52;;;;;;;10.52;5.28;;;;;;;12.50;94.93;100491.94;8322792;28;20036;-52
2022/10/10 07:23:53;;;;;;;9.10;5.03;;;;;;;12.69;95.46;100498.06;8320782;28;20487;-52
2022/10/10 07:27:55;;;;;;;11.10;4.53;;;;;;;12.88;96.54;100497.94;8322652;28;20037;-54
2022/10/10 07:31:56;;;;;;;7.88;4.45;;;;;;;13.20;96.33;100497.34;8323271;28;20521;-54
2022/10/10 07:35:57;;;;;;;8.82;4.53;;;;;;;13.63;95.92;100481.88;8323485;28;20399;-55
2022/10/10 07:39:57;;;;;;;9.23;4.60;;;;;;;13.83;96.17;100479.78;8322953;28;20498;-51
2022/10/10 07:43:58;;;;;;;15.13;4.78;;;;;;;14.11;95.94;100492.16;8329970;28;20037;-54
2022/10/10 07:47:59;;;;;;;11.05;4.68;;;;;;;14.45;94.44;100492.97;8329012;28;20063;-52
2022/10/10 07:51:59;;;;;;;12.90;5.85;;;;;;;14.62;92.25;100493.88;8328973;28;20514;-55
2022/10/10 07:56:03;;;;;;;14.88;5.43;;;;;;;14.77;91.26;100498.50;8329867;28;20388;-53
2022/10/10 08:00:07;;;;;;;10.03;4.47;;;;;;;14.96;90.58;100498.19;8329321;28;20037;-52
2022/10/10 08:04:14;;;;;;;15.30;4.78;;;;;;;14.89;90.32;100489.00;8327981;28;20048;-53
2022/10/10 08:08:15;;;;;;;9.15;4.88;;;;;;;15.10;90.74;100489.31;8329171;28;20527;-54
2022/10/10 08:12:15;;;;;;;8.50;3.80;;;;;;;15.15;89.92;100484.22;8329360;28;20041;-51
2022/10/10 08:16:17;;;;;;;6.95;3.75;;;;;;;15.25;89.85;100487.63;8328782;28;20064;-52
2022/10/10 08:20:18;;;;;;;10.45;3.55;;;;;;;15.38;90.54;100479.81;8327781;28;20025;-53
2022/10/10 08:24:18;;;;;;;7.18;3.38;;;;;;;15.41;89.74;100482.19;8327800;28;20048;-54
2022/10/10 08:28:19;;;;;;;10.35;4.32;;;;;;;15.73;88.52;100475.81;8328747;28;20560;-51
2022/10/10 08:32:20;;;;;;;5.00;3.05;;;;;;;15.98;86.93;100488.34;8327934;28;20037;-53
2022/10/10 08:36:22;;;;;;;5.90;2.85;;;;;;;16.17;85.90;100492.53;8327286;28;20402;-55
2022/10/10 08:40:27;;;;;;;7.65;3.38;;;;;;;16.53;84.10;100497.31;8327228;28;20079;-52
2022/10/10 08:44:47;;;;;;;;;;;;;;;16.49;83.74;100500.59;8310903;28;20107;-55
2022/10/10 08:48:51;;;;;;;12.13;3.42;;;;;;;16.75;83.44;100501.13;8327067;28;19956;-53
2022/10/10 08:52:58;;;;;;;12.70;3.10;;;;;;;17.35;81.71;100499.28;8326103;28;20033;-55
2022/10/10 08:57:03;;;;;;;7.85;2.70;;;;;;;17.58;80.25;100494.66;8324658;28;20038;-54
2022/10/10 09:01:14;;;;;;;9.95;3.30;;;;;;;19.25;75.15;100498.94;8324624;28;20042;-55
2022/10/10 09:05:40;;;;;;;8.32;2.67;;;;;;;21.20;67.43;100501.16;8309341;28;20038;-53
2022/10/10 09:09:53;;;;;;;3.70;2.05;;;;;;;22.11;64.16;100506.63;8329690;28;20121;-55
2022/10/10 09:14:13;;;;;;;10.68;2.20;;;;;;;22.16;64.20;100506.84;8328652;28;20041;-55
2022/10/10 09:18:47;;;;;;;7.18;2.25;;;;;;;23.39;59.88;100503.75;8323257;28;20122;-56
2022/10/10 09:22:59;;;;;;;;;;;;;;;24.34;58.20;100517.97;8327528;28;20569;-54
2022/10/10 09:27:03;;;;;;;4.72;2.47;;;;;;;24.57;57.75;100518.09;8323789;28;19936;-55
2022/10/10 09:31:53;;;;;;;5.15;2.22;;;;;;;25.47;54.80;100512.41;8325031;28;20111;-54
2022/10/10 09:35:58;;;;;;;5.70;2.15;;;;;;;24.81;55.62;100514.41;8322919;28;20517;-55
2022/10/10 09:40:23;;;;;;;7.68;2.28;;;;;;;24.84;55.82;100500.97;8324710;28;20029;-55
2022/10/10 09:44:23;;;;;;;6.65;2.30;;;;;;;25.26;54.94;100509.31;8325384;28;20207;-55
2022/10/10 09:48:30;;;;;;;7.95;1.80;;;;;;;26.83;52.57;100499.84;8324198;28;20048;-55
2022/10/10 09:52:31;;;;;;;5.97;1.48;;;;;;;26.95;50.22;100503.41;8323881;28;20107;-55
2022/10/10 09:56:40;;;;;;;11.27;2.08;;;;;;;25.47;51.27;100520.72;8324114;28;20026;-54
2022/10/10 10:00:41;;;;;;;9.18;2.28;;;;;;;23.18;54.63;100519.53;8322482;28;20041;-56
2022/10/10 10:04:41;;;;;;;17.10;2.20;;;;;;;21.84;58.21;100521.53;8323728;28;20048;-55
2022/10/10 10:08:42;;;;;;;6.15;2.03;;;;;;;21.49;59.33;100514.50;8323907;28;20037;-52
2022/10/10 10:12:44;;;;;;;12.05;2.20;;;;;;;21.65;59.45;100514.06;8308723;28;20534;-54
2022/10/10 10:16:45;;;;;;;9.77;2.40;;;;;;;22.05;59.39;100504.72;8313736;28;20069;-54
2022/10/10 10:20:48;;;;;;;13.55;2.25;;;;;;;22.54;58.39;100516.06;8312230;28;20041;-55
2022/10/10 10:24:49;;;;;;;10.03;2.03;;;;;;;23.39;56.74;100517.53;8303309;28;20045;-55
2022/10/10 10:28:51;;;;;;;16.30;2.88;;;;;;;25.53;52.52;100521.69;8321203;28;20816;-54
2022/10/10 10:33:01;;;;;;;9.43;2.25;;;;;;;25.98;50.90;100520.94;8316624;28;20041;-56
2022/10/10 10:37:24;;;;;;;8.07;1.70;;;;;;;26.05;50.36;100518.91;8316076;28;20051;-56
2022/10/10 10:41:54;;;;;;;9.07;1.70;;;;;;;26.30;49.15;100530.56;8318127;28;20041;-54
2022/10/10 10:46:26;;;;;;;6.10;1.48;;;;;;;26.07;50.72;100525.03;8319581;28;20048;-55
2022/10/10 10:50:46;;;;;;;8.82;2.00;;;;;;;26.91;48.64;100523.59;8339835;28;20053;-55
2022/10/10 10:59:49;;;;;;;11.68;2.00;;;;;;;28.07;48.59;100533.00;8318768;27;20514;-55
2022/10/10 11:03:59;;;;;;;5.68;1.83;;;;;;;27.24;49.60;100526.47;8346894;28;20419;-54
2022/10/10 11:16:59;;;;;;;10.85;2.22;;;;;;;25.53;52.20;100527.22;8412402;27;21133;-55
2022/10/10 11:21:07;;;;;;;15.95;2.22;;;;;;;25.07;52.90;100527.91;8387094;28;20101;-51
2022/10/10 11:25:22;;;;;;;15.10;1.98;;;;;;;24.59;52.88;100527.00;8410180;28;20064;-51
2022/10/10 11:29:28;;;;;;;9.45;1.60;;;;;;;24.02;54.40;100525.50;8412509;28;20452;-54
2022/10/10 11:33:35;;;;;;;12.50;2.72;;;;;;;23.93;55.18;100523.22;8415663;28;20119;-54
2022/10/10 11:37:42;;;;;;;13.18;1.83;;;;;;;24.43;54.49;100519.34;8417735;28;20031;-51
2022/10/10 11:41:50;;;;;;;8.80;2.45;;;;;;;25.30;54.70;100516.03;8424913;28;20033;-52
2022/10/10 11:45:59;;;;;;;9.90;2.20;;;;;;;24.77;54.63;100522.31;8376503;28;20485;-53
2022/10/10 11:50:14;;;;;;;15.00;2.25;;;;;;;23.88;56.67;100514.78;8380895;28;20037;-54
2022/10/10 11:58:55;;;;;;;16.05;2.03;;;;;;;22.59;59.81;100530.03;8381122;27;20397;-53
2022/10/10 12:02:57;;;;;;;16.17;2.85;;;;;;;22.51;60.05;100526.69;8394944;28;20047;-52
2022/10/10 12:07:06;;;;;;;13.88;2.17;;;;;;;22.61;59.81;100532.59;8380414;28;20113;-53
2022/10/10 12:11:18;;;;;;;14.85;2.65;;;;;;;22.54;60.67;100529.84;8382797;28;20032;-55
2022/10/10 12:15:31;;;;;;;13.55;2.13;;;;;;;23.05;58.55;100535.31;8401704;28;20501;-54
2022/10/10 12:19:31;;;;;;;14.75;2.22;;;;;;;24.14;56.18;100536.66;8375595;28;20040;-54
2022/10/10 12:23:33;;;;;;;14.70;2.40;;;;;;;23.76;57.13;100528.50;8381037;28;20041;-52
2022/10/10 12:28:13;;;;;;;9.60;1.95;;;;;;;23.10;58.35;100528.09;8373399;28;20045;-50
2022/10/10 12:36:32;;;;;;;10.75;2.15;;;;;;;22.60;60.03;100512.44;8271529;28;20400;-53
2022/10/10 12:40:54;;;;;;;16.65;2.15;;;;;;;22.71;59.80;100520.03;8280145;28;20046;-52
2022/10/10 12:44:54;;;;;;;18.77;3.08;;;;;;;22.40;60.50;100519.06;8281460;28;20045;-55
2022/10/10 12:48:59;;;;;;;13.02;2.10;;;;;;;22.35;61.40;100527.97;8281672;28;20522;-55
2022/10/10 12:53:15;;;;;;;9.65;2.20;;;;;;;22.64;60.62;100516.47;8281563;28;20467;-54
2022/10/10 12:57:32;;;;;;;9.18;2.03;;;;;;;22.75;60.01;100521.28;8282284;28;20183;-52
2022/10/10 13:01:37;;;;;;;9.88;2.13;;;;;;;23.10;60.91;100525.34;8278529;28;20689;-54
2022/10/10 13:05:39;;;;;;;12.60;2.42;;;;;;;22.90;59.26;100505.28;8279948;28;20038;-53
2022/10/10 13:09:44;;;;;;;11.43;2.38;;;;;;;22.54;60.30;100513.31;8281074;28;20038;-52
2022/10/10 13:13:51;;;;;;;21.98;3.03;;;;;;;22.50;59.97;100513.94;8280062;28;20465;-55
2022/10/10 13:17:51;;;;;;;11.25;2.88;;;;;;;22.24;60.92;100514.88;8280691;28;20050;-54
2022/10/10 13:21:54;;;;;;;15.80;3.53;;;;;;;22.30;61.37;100514.00;8280759;28;20038;-51
2022/10/10 13:25:55;;;;;;;14.45;3.00;;;;;;;22.50;61.00;100520.31;8281440;28;20498;-55
2022/10/10 13:29:56;;;;;;;15.85;2.20;;;;;;;22.66;60.34;100508.81;8278525;28;20046;-55
2022/10/10 13:34:00;;;;;;;11.40;2.08;;;;;;;22.45;61.49;100511.81;8278534;28;20038;-54
2022/10/10 13:38:01;;;;;;;15.68;2.42;;;;;;;22.46;60.90;100520.94;8271938;28;20042;-52
2022/10/10 13:42:04;;;;;;;16.27;2.83;;;;;;;22.19;61.21;100517.41;8256249;28;20380;-53
2022/10/10 13:46:05;;;;;;;13.13;2.47;;;;;;;22.10;61.31;100517.84;8247317;28;20043;-54
2022/10/10 13:50:30;;;;;;;15.45;2.47;;;;;;;22.12;61.98;100522.09;8243389;28;20053;-51
2022/10/10 13:54:47;;;;;;;19.52;3.95;;;;;;;21.87;61.90;100526.59;8252701;28;20046;-52
2022/10/10 13:58:52;;;;;;;8.35;2.15;;;;;;;22.05;62.05;100521.25;8246846;28;20081;-54
2022/10/10 14:02:53;;;;;;;13.77;2.63;;;;;;;21.89;62.16;100532.72;8253921;28;20046;-52
2022/10/10 14:11:12;;;;;;;13.80;2.63;;;;;;;21.70;62.75;100535.44;8319549;27;20409;-53
2022/10/10 14:15:43;;;;;;;16.27;2.75;;;;;;;21.54;64.13;100542.22;8323077;28;20039;-51
2022/10/10 14:19:45;;;;;;;12.18;2.42;;;;;;;21.36;64.89;100542.00;8317662;28;20041;-55
2022/10/10 14:23:45;;;;;;;12.13;2.30;;;;;;;21.40;64.72;100542.44;8320849;28;20061;-51
2022/10/10 14:27:46;;;;;;;21.67;2.15;;;;;;;21.20;65.37;100542.41;8343725;28;20040;-54
2022/10/10 14:31:47;;;;;;;13.43;2.47;;;;;;;21.04;66.09;100548.25;8341271;28;20497;-53
2022/10/10 14:35:50;;;;;;;14.95;2.95;;;;;;;20.92;65.89;100549.91;8298307;28;20034;-52
2022/10/10 14:39:52;;;;;;;14.10;2.88;;;;;;;20.90;66.15;100558.38;8292964;28;20038;-53
2022/10/10 14:43:53;;;;;;;15.90;2.90;;;;;;;20.78;66.41;100567.38;8302878;28;20046;-50
2022/10/10 14:47:54;;;;;;;19.40;2.58;;;;;;;20.69;67.71;100576.84;8325704;28;20045;-51
2022/10/10 14:51:55;;;;;;;22.90;3.17;;;;;;;20.51;68.45;100584.78;8315660;28;20038;-55
2022/10/10 14:55:55;;;;;;;14.20;2.42;;;;;;;20.37;68.91;100578.38;8295931;28;20123;-53
2022/10/10 14:59:56;;;;;;;16.80;2.55;;;;;;;20.29;69.59;100595.03;8301647;28;20120;-52
2022/10/10 15:03:57;;;;;;;15.93;2.92;;;;;;;20.17;70.04;100598.53;8311245;28;20033;-55
2022/10/10 15:07:57;;;;;;;12.57;2.80;;;;;;;20.12;70.72;100611.97;8304538;28;20046;-51
2022/10/10 15:11:58;;;;;;;16.58;2.90;;;;;;;20.08;71.52;100621.66;8312125;28;20459;-52
2022/10/10 15:15:58;;;;;;;14.45;2.15;;;;;;;19.86;73.55;100628.22;8297478;28;20038;-52
2022/10/10 15:20:00;;;;;;;16.75;3.25;;;;;;;19.59;75.46;100635.34;8300000;28;20076;-52
2022/10/10 15:24:00;;;;;;;11.18;3.25;;;;;;;19.40;77.28;100647.81;8298938;28;20521;-51
2022/10/10 15:28:02;;;;;;;9.40;3.50;;;;;;;19.15;79.21;100640.94;8287468;28;20457;-52
2022/10/10 15:32:03;;;;;;;12.95;3.80;;;;;;;19.07;79.76;100654.78;8277068;28;20046;-54
2022/10/10 15:36:06;;;;;;;14.93;3.70;;;;;;;18.83;82.88;100655.09;8279933;28;20045;-50
2022/10/10 15:40:08;;;;;;;17.67;4.45;;;;;;;18.66;83.42;100667.28;8298231;28;20050;-52
2022/10/10 15:44:15;;;;;;;14.32;4.13;;;;;;;18.64;85.27;100674.84;8302350;28;20038;-52
2022/10/10 15:48:15;;;;;;;11.60;3.53;;;;;;;18.60;83.85;100678.97;8310522;28;20041;-52
2022/10/10 15:52:18;;;;;;;14.68;3.33;;;;;;;18.65;83.67;100687.50;8294718;28;20042;-50
2022/10/10 15:56:18;;;;;;;25.77;3.58;;;;;;;18.65;83.20;100692.13;8272338;28;20581;-53
2022/10/10 16:00:19;;;;;;;10.65;3.35;;;;;;;18.60;82.86;100700.91;8284322;28;20046;-50
2022/10/10 16:04:21;;;;;;;18.90;3.78;;;;;;;18.69;82.18;100710.72;8296568;28;20103;-53
2022/10/10 16:08:21;;;;;;;11.15;3.13;;;;;;;18.67;82.42;100718.25;8282705;28;20045;-50
2022/10/10 16:12:22;;;;;;;14.13;3.33;;;;;;;18.64;81.67;100718.69;8289476;28;20049;-51
2022/10/10 16:16:23;;;;;;;12.43;3.17;;;;;;;18.57;83.14;100728.66;8284758;28;20072;-54
2022/10/10 16:20:24;;;;;;;11.25;3.45;;;;;;;18.58;80.42;100740.47;8286665;28;20400;-52
2022/10/10 16:24:25;;;;;;;11.32;3.15;;;;;;;18.54;81.67;100750.94;8270692;28;20087;-56
2022/10/10 16:28:26;;;;;;;13.27;3.90;;;;;;;18.47;81.62;100760.94;8268023;28;20070;-52
2022/10/10 16:32:26;;;;;;;13.70;3.60;;;;;;;18.42;81.30;100762.53;8274016;28;20125;-50
2022/10/10 16:36:30;;;;;;;18.20;3.70;;;;;;;18.50;79.64;100765.19;8276225;28;20100;-51
2022/10/10 16:40:35;;;;;;;14.30;3.40;;;;;;;18.48;78.58;100768.09;8271046;28;20137;-52
2022/10/10 16:44:36;;;;;;;8.65;2.92;;;;;;;18.42;79.10;100782.53;8254424;28;20042;-52
2022/10/10 16:48:38;;;;;;;14.02;3.83;;;;;;;18.37;79.25;100787.72;8234164;28;20542;-54
2022/10/10 16:52:39;;;;;;;12.40;3.85;;;;;;;18.27;80.00;100792.56;8232824;28;20357;-54
2022/10/10 16:56:40;;;;;;;14.38;2.58;;;;;;;18.02;81.21;100804.72;8259793;28;20096;-51
2022/10/10 17:00:41;;;;;;;12.07;3.47;;;;;;;17.89;82.02;100804.47;8297302;28;20046;-54
2022/10/10 17:04:42;;;;;;;14.70;3.17;;;;;;;17.88;82.35;100813.72;8286652;28;20037;-50
2022/10/10 17:08:43;;;;;;;13.25;4.05;;;;;;;17.85;82.50;100819.56;8281619;28;20112;-50
2022/10/10 17:12:44;;;;;;;14.27;3.67;;;;;;;17.88;82.82;100829.28;8283429;28;20049;-52
2022/10/10 17:16:44;;;;;;;16.83;3.85;;;;;;;17.80;83.67;100838.38;8261064;28;20046;-52
2022/10/10 17:20:47;;;;;;;9.75;3.40;;;;;;;17.67;84.15;100843.56;8289120;28;20052;-50
2022/10/10 17:24:47;;;;;;;10.95;4.20;;;;;;;17.60;84.69;100853.53;8291262;28;20041;-52
2022/10/10 17:28:49;;;;;;;13.05;3.70;;;;;;;17.53;85.34;100863.44;8298052;28;20118;-55
2022/10/10 17:32:50;;;;;;;16.67;4.22;;;;;;;17.47;86.09;100869.63;8316487;28;20416;-53
2022/10/10 17:36:51;;;;;;;13.77;4.93;;;;;;;17.41;86.63;100881.22;8317866;28;20037;-52
2022/10/10 17:40:58;;;;;;;13.68;5.07;;;;;;;17.29;87.99;100893.56;8316819;28;20045;-52
2022/10/10 17:44:59;;;;;;;13.95;4.45;;;;;;;17.25;88.50;100897.66;8286231;28;20077;-50
2022/10/10 17:49:01;;;;;;;18.40;4.97;;;;;;;17.30;88.73;100911.69;8286513;28;20053;-53
2022/10/10 17:53:02;;;;;;;13.90;5.20;;;;;;;17.28;89.14;100916.47;8285378;28;20029;-52
2022/10/10 17:57:03;;;;;;;17.27;5.68;;;;;;;17.27;89.65;100917.50;8286361;28;20049;-51
2022/10/10 18:01:04;;;;;;;15.75;6.57;;;;;;;17.25;90.68;100931.34;8309578;28;20037;-54
2022/10/10 18:05:05;;;;;;;16.80;7.78;;;;;;;17.25;91.88;100944.13;8279494;28;20030;-50
2022/10/10 18:09:06;;;;;;;11.73;7.40;;;;;;;17.24;91.94;100943.31;8284985;28;20042;-51
2022/10/10 18:13:07;;;;;;;16.25;7.38;;;;;;;17.21;92.73;100959.19;8276851;28;20046;-51
2022/10/10 18:17:08;;;;;;;14.60;6.47;;;;;;;17.14;92.89;100960.91;8282063;28;20030;-51
2022/10/10 18:21:10;;;;;;;12.85;6.90;;;;;;;17.03;93.04;100967.56;8284920;28;20121;-51
2022/10/10 18:25:11;;;;;;;15.57;6.82;;;;;;;16.97;93.88;100972.84;8283191;28;20775;-52
2022/10/10 18:29:13;;;;;;;11.27;6.80;;;;;;;16.84;95.03;100987.00;8293803;28;20095;-52
2022/10/10 18:33:14;;;;;;;13.15;6.93;;;;;;;16.75;96.14;100982.56;8288984;28;20324;-51
2022/10/10 18:37:15;;;;;;;10.65;6.70;;;;;;;16.69;97.06;100993.31;8284725;28;20049;-51
2022/10/10 18:41:19;;;;;;;11.30;7.68;;;;;;;16.64;97.41;100999.28;8279603;28;20529;-51
2022/10/10 18:45:20;;;;;;;10.05;6.97;;;;;;;16.51;97.57;101008.97;8296477;28;20515;-52
2022/10/10 18:49:22;;;;;;;9.60;6.82;;;;;;;16.34;98.56;101018.06;8281398;28;20258;-53
2022/10/10 18:53:23;;;;;;;6.55;5.82;;;;;;;16.20;99.39;101019.59;8275256;28;20458;-52
2022/10/10 18:57:23;;;;;;;5.78;4.95;;;;;;;15.98;100.00;101036.50;8275850;28;20046;-51
2022/10/10 19:01:25;;;;;;;6.00;4.80;;;;;;;15.79;100.00;101034.03;8275194;28;20049;-50
2022/10/10 19:05:26;;;;;;;6.10;3.33;;;;;;;15.54;97.96;101049.38;8284090;28;20046;-54
2022/10/10 19:09:26;;;;;;;8.85;3.30;;;;;;;15.48;95.62;101055.47;8271887;28;20053;-50
2022/10/10 19:13:28;;;;;;;10.02;3.22;;;;;;;15.46;93.42;101072.97;8265476;28;20038;-54
2022/10/10 19:17:30;;;;;;;9.48;1.88;;;;;;;15.41;92.01;101076.16;8275774;28;20053;-54